sensor_id;sensor_type;location;lat;lon;timestamp;P1;durP1;ratioP1;P2;durP2;ratioP2
16113;SDS011;8161;-33.910;151.156;2023-05-07T00:02:25;1.85;;;0.70;;
16113;SDS011;8161;-33.910;151.156;2023-05-07T00:04:52;2.80;;;0.80;;
16113;SDS011;8161;-33.910;151.156;2023-05-07T00:07:20;2.85;;;0.90;;
16113;SDS011;8161;-33.910;151.156;2023-05-07T00:09:48;2.13;;;0.70;;
16113;SDS011;8161;-33.910;151.156;2023-05-07T00:12:15;1.25;;;0.60;;
16113;SDS011;8161;-33.910;151.156;2023-05-07T00:14:42;5.20;;;0.70;;
16113;SDS011;8161;-33.910;151.156;2023-05-07T00:17:11;3.25;;;0.95;;
16113;SDS011;8161;-33.910;151.156;2023-05-07T00:19:38;2.38;;;1.10;;
16113;SDS011;8161;-33.910;151.156;2023-05-07T00:22:08;1.67;;;0.73;;
16113;SDS011;8161;-33.910;151.156;2023-05-07T00:24:35;2.30;;;1.00;;
16113;SDS011;8161;-33.910;151.156;2023-05-07T00:27:03;2.13;;;1.20;;
16113;SDS011;8161;-33.910;151.156;2023-05-07T00:29:30;6.00;;;1.75;;
16113;SDS011;8161;-33.910;151.156;2023-05-07T00:31:57;2.72;;;1.20;;
16113;SDS011;8161;-33.910;151.156;2023-05-07T00:34:25;1.95;;;0.98;;
16113;SDS011;8161;-33.910;151.156;2023-05-07T00:36:55;2.83;;;1.05;;
16113;SDS011;8161;-33.910;151.156;2023-05-07T00:39:22;2.25;;;0.90;;
16113;SDS011;8161;-33.910;151.156;2023-05-07T00:41:49;2.75;;;1.08;;
16113;SDS011;8161;-33.910;151.156;2023-05-07T00:44:16;2.75;;;0.70;;
16113;SDS011;8161;-33.910;151.156;2023-05-07T00:46:44;3.15;;;1.23;;
16113;SDS011;8161;-33.910;151.156;2023-05-07T00:49:14;4.40;;;1.60;;
16113;SDS011;8161;-33.910;151.156;2023-05-07T00:51:41;2.90;;;1.17;;
16113;SDS011;8161;-33.910;151.156;2023-05-07T00:54:10;6.45;;;3.03;;
16113;SDS011;8161;-33.910;151.156;2023-05-07T00:56:38;6.27;;;2.27;;
16113;SDS011;8161;-33.910;151.156;2023-05-07T00:59:06;3.95;;;1.92;;
16113;SDS011;8161;-33.910;151.156;2023-05-07T01:01:35;4.10;;;1.30;;
16113;SDS011;8161;-33.910;151.156;2023-05-07T01:04:03;3.83;;;1.55;;
16113;SDS011;8161;-33.910;151.156;2023-05-07T01:06:30;2.25;;;1.02;;
16113;SDS011;8161;-33.910;151.156;2023-05-07T01:08:59;2.33;;;0.73;;
16113;SDS011;8161;-33.910;151.156;2023-05-07T01:11:27;3.20;;;1.50;;
16113;SDS011;8161;-33.910;151.156;2023-05-07T01:13:54;3.53;;;1.50;;
16113;SDS011;8161;-33.910;151.156;2023-05-07T01:16:25;3.20;;;0.93;;
16113;SDS011;8161;-33.910;151.156;2023-05-07T01:18:52;3.33;;;0.85;;
16113;SDS011;8161;-33.910;151.156;2023-05-07T01:21:20;1.88;;;0.80;;
16113;SDS011;8161;-33.910;151.156;2023-05-07T01:23:52;1.60;;;0.90;;
16113;SDS011;8161;-33.910;151.156;2023-05-07T01:26:20;3.23;;;1.10;;
16113;SDS011;8161;-33.910;151.156;2023-05-07T01:28:49;3.08;;;1.30;;
16113;SDS011;8161;-33.910;151.156;2023-05-07T01:31:16;2.08;;;0.98;;
16113;SDS011;8161;-33.910;151.156;2023-05-07T01:33:43;1.42;;;0.90;;
16113;SDS011;8161;-33.910;151.156;2023-05-07T01:36:14;3.10;;;0.90;;
16113;SDS011;8161;-33.910;151.156;2023-05-07T01:38:43;2.08;;;0.95;;
16113;SDS011;8161;-33.910;151.156;2023-05-07T01:41:11;2.40;;;0.80;;
16113;SDS011;8161;-33.910;151.156;2023-05-07T01:43:39;1.52;;;0.73;;
16113;SDS011;8161;-33.910;151.156;2023-05-07T01:46:07;2.00;;;0.88;;
16113;SDS011;8161;-33.910;151.156;2023-05-07T01:48:36;1.70;;;0.90;;
16113;SDS011;8161;-33.910;151.156;2023-05-07T01:51:05;2.75;;;1.15;;
16113;SDS011;8161;-33.910;151.156;2023-05-07T01:53:37;3.63;;;1.27;;
16113;SDS011;8161;-33.910;151.156;2023-05-07T01:56:06;1.73;;;0.80;;
16113;SDS011;8161;-33.910;151.156;2023-05-07T01:58:33;2.15;;;1.10;;
16113;SDS011;8161;-33.910;151.156;2023-05-07T02:01:04;1.67;;;0.80;;
16113;SDS011;8161;-33.910;151.156;2023-05-07T02:03:31;2.40;;;0.90;;
16113;SDS011;8161;-33.910;151.156;2023-05-07T02:05:58;2.13;;;1.00;;
16113;SDS011;8161;-33.910;151.156;2023-05-07T02:08:26;2.20;;;0.80;;
16113;SDS011;8161;-33.910;151.156;2023-05-07T02:10:53;2.10;;;0.80;;
16113;SDS011;8161;-33.910;151.156;2023-05-07T02:13:20;3.00;;;1.10;;
16113;SDS011;8161;-33.910;151.156;2023-05-07T02:15:48;1.92;;;0.80;;
16113;SDS011;8161;-33.910;151.156;2023-05-07T02:18:16;1.33;;;0.80;;
16113;SDS011;8161;-33.910;151.156;2023-05-07T02:20:43;1.75;;;0.77;;
16113;SDS011;8161;-33.910;151.156;2023-05-07T02:23:10;6.13;;;0.63;;
16113;SDS011;8161;-33.910;151.156;2023-05-07T02:25:38;1.80;;;0.67;;
16113;SDS011;8161;-33.910;151.156;2023-05-07T02:28:08;2.40;;;0.70;;
16113;SDS011;8161;-33.910;151.156;2023-05-07T02:30:36;1.80;;;0.70;;
16113;SDS011;8161;-33.910;151.156;2023-05-07T02:33:04;1.60;;;0.68;;
16113;SDS011;8161;-33.910;151.156;2023-05-07T02:35:33;1.42;;;0.52;;
16113;SDS011;8161;-33.910;151.156;2023-05-07T02:38:00;0.80;;;0.45;;
16113;SDS011;8161;-33.910;151.156;2023-05-07T02:40:28;1.10;;;0.70;;
16113;SDS011;8161;-33.910;151.156;2023-05-07T02:42:59;1.13;;;0.60;;
16113;SDS011;8161;-33.910;151.156;2023-05-07T02:45:26;1.95;;;1.00;;
16113;SDS011;8161;-33.910;151.156;2023-05-07T02:47:53;2.50;;;0.70;;
16113;SDS011;8161;-33.910;151.156;2023-05-07T02:50:20;0.80;;;0.50;;
16113;SDS011;8161;-33.910;151.156;2023-05-07T02:52:48;3.93;;;0.70;;
16113;SDS011;8161;-33.910;151.156;2023-05-07T02:55:15;3.07;;;1.13;;
16113;SDS011;8161;-33.910;151.156;2023-05-07T02:57:42;3.10;;;1.05;;
16113;SDS011;8161;-33.910;151.156;2023-05-07T03:00:11;1.75;;;0.77;;
16113;SDS011;8161;-33.910;151.156;2023-05-07T03:02:39;1.13;;;0.50;;
16113;SDS011;8161;-33.910;151.156;2023-05-07T03:05:07;2.25;;;0.70;;
16113;SDS011;8161;-33.910;151.156;2023-05-07T03:07:35;1.90;;;0.70;;
16113;SDS011;8161;-33.910;151.156;2023-05-07T03:10:02;2.30;;;0.80;;
16113;SDS011;8161;-33.910;151.156;2023-05-07T03:12:30;2.10;;;0.68;;
16113;SDS011;8161;-33.910;151.156;2023-05-07T03:14:58;1.35;;;0.70;;
16113;SDS011;8161;-33.910;151.156;2023-05-07T03:17:25;1.85;;;0.65;;
16113;SDS011;8161;-33.910;151.156;2023-05-07T03:19:52;2.30;;;1.00;;
16113;SDS011;8161;-33.910;151.156;2023-05-07T03:22:20;1.60;;;0.50;;
16113;SDS011;8161;-33.910;151.156;2023-05-07T03:24:47;2.90;;;0.63;;
16113;SDS011;8161;-33.910;151.156;2023-05-07T03:27:14;1.20;;;0.52;;
16113;SDS011;8161;-33.910;151.156;2023-05-07T03:29:42;1.50;;;0.50;;
16113;SDS011;8161;-33.910;151.156;2023-05-07T03:32:09;0.90;;;0.57;;
16113;SDS011;8161;-33.910;151.156;2023-05-07T03:34:36;1.60;;;0.77;;
16113;SDS011;8161;-33.910;151.156;2023-05-07T03:37:03;1.30;;;0.68;;
16113;SDS011;8161;-33.910;151.156;2023-05-07T03:39:31;1.73;;;0.50;;
16113;SDS011;8161;-33.910;151.156;2023-05-07T03:42:04;1.50;;;0.57;;
16113;SDS011;8161;-33.910;151.156;2023-05-07T03:44:31;0.70;;;0.30;;
16113;SDS011;8161;-33.910;151.156;2023-05-07T03:46:58;0.80;;;0.47;;
16113;SDS011;8161;-33.910;151.156;2023-05-07T03:49:26;0.63;;;0.20;;
16113;SDS011;8161;-33.910;151.156;2023-05-07T03:51:53;1.70;;;0.40;;
16113;SDS011;8161;-33.910;151.156;2023-05-07T03:54:23;0.47;;;0.30;;
16113;SDS011;8161;-33.910;151.156;2023-05-07T03:56:50;1.10;;;0.30;;
16113;SDS011;8161;-33.910;151.156;2023-05-07T03:59:17;1.38;;;0.45;;
16113;SDS011;8161;-33.910;151.156;2023-05-07T04:01:45;0.90;;;0.57;;
16113;SDS011;8161;-33.910;151.156;2023-05-07T04:04:12;0.95;;;0.52;;
16113;SDS011;8161;-33.910;151.156;2023-05-07T04:06:39;1.42;;;0.60;;
16113;SDS011;8161;-33.910;151.156;2023-05-07T04:09:10;0.80;;;0.50;;
16113;SDS011;8161;-33.910;151.156;2023-05-07T04:11:37;1.88;;;0.70;;
16113;SDS011;8161;-33.910;151.156;2023-05-07T04:14:05;2.17;;;0.60;;
16113;SDS011;8161;-33.910;151.156;2023-05-07T04:16:34;1.45;;;0.50;;
16113;SDS011;8161;-33.910;151.156;2023-05-07T04:19:01;1.40;;;0.70;;
16113;SDS011;8161;-33.910;151.156;2023-05-07T04:21:28;1.23;;;0.40;;
16113;SDS011;8161;-33.910;151.156;2023-05-07T04:23:56;1.63;;;0.70;;
16113;SDS011;8161;-33.910;151.156;2023-05-07T04:26:23;2.20;;;0.60;;
16113;SDS011;8161;-33.910;151.156;2023-05-07T04:28:50;1.45;;;0.68;;
16113;SDS011;8161;-33.910;151.156;2023-05-07T04:31:18;1.30;;;0.50;;
16113;SDS011;8161;-33.910;151.156;2023-05-07T04:33:45;1.60;;;0.50;;
16113;SDS011;8161;-33.910;151.156;2023-05-07T04:36:12;0.70;;;0.40;;
16113;SDS011;8161;-33.910;151.156;2023-05-07T04:38:39;0.85;;;0.50;;
16113;SDS011;8161;-33.910;151.156;2023-05-07T04:41:08;1.53;;;0.43;;
16113;SDS011;8161;-33.910;151.156;2023-05-07T04:43:35;1.08;;;0.57;;
16113;SDS011;8161;-33.910;151.156;2023-05-07T04:46:03;1.23;;;0.40;;
16113;SDS011;8161;-33.910;151.156;2023-05-07T04:48:30;1.27;;;0.75;;
16113;SDS011;8161;-33.910;151.156;2023-05-07T04:50:57;3.50;;;0.73;;
16113;SDS011;8161;-33.910;151.156;2023-05-07T04:53:25;2.63;;;0.77;;
16113;SDS011;8161;-33.910;151.156;2023-05-07T04:55:55;1.50;;;0.50;;
16113;SDS011;8161;-33.910;151.156;2023-05-07T04:58:22;2.10;;;0.50;;
16113;SDS011;8161;-33.910;151.156;2023-05-07T05:00:50;1.42;;;0.40;;
16113;SDS011;8161;-33.910;151.156;2023-05-07T05:03:17;0.82;;;0.45;;
16113;SDS011;8161;-33.910;151.156;2023-05-07T05:05:45;1.52;;;0.50;;
16113;SDS011;8161;-33.910;151.156;2023-05-07T05:08:12;1.35;;;0.50;;
16113;SDS011;8161;-33.910;151.156;2023-05-07T05:10:39;0.90;;;0.40;;
16113;SDS011;8161;-33.910;151.156;2023-05-07T05:13:08;0.65;;;0.22;;
16113;SDS011;8161;-33.910;151.156;2023-05-07T05:15:38;1.50;;;0.40;;
16113;SDS011;8161;-33.910;151.156;2023-05-07T05:18:05;1.33;;;0.40;;
16113;SDS011;8161;-33.910;151.156;2023-05-07T05:20:33;1.77;;;0.33;;
16113;SDS011;8161;-33.910;151.156;2023-05-07T05:23:00;0.47;;;0.30;;
16113;SDS011;8161;-33.910;151.156;2023-05-07T05:25:27;1.60;;;0.40;;
16113;SDS011;8161;-33.910;151.156;2023-05-07T05:27:54;1.50;;;0.40;;
16113;SDS011;8161;-33.910;151.156;2023-05-07T05:30:24;0.90;;;0.55;;
16113;SDS011;8161;-33.910;151.156;2023-05-07T05:32:51;1.23;;;0.52;;
16113;SDS011;8161;-33.910;151.156;2023-05-07T05:35:19;3.67;;;0.50;;
16113;SDS011;8161;-33.910;151.156;2023-05-07T05:37:49;0.43;;;0.20;;
16113;SDS011;8161;-33.910;151.156;2023-05-07T05:40:16;0.55;;;0.30;;
16113;SDS011;8161;-33.910;151.156;2023-05-07T05:42:43;0.45;;;0.30;;
16113;SDS011;8161;-33.910;151.156;2023-05-07T05:45:11;0.88;;;0.35;;
16113;SDS011;8161;-33.910;151.156;2023-05-07T05:47:38;1.38;;;0.50;;
16113;SDS011;8161;-33.910;151.156;2023-05-07T05:50:06;1.50;;;0.70;;
16113;SDS011;8161;-33.910;151.156;2023-05-07T05:52:33;1.52;;;0.68;;
16113;SDS011;8161;-33.910;151.156;2023-05-07T05:55:01;1.55;;;0.50;;
16113;SDS011;8161;-33.910;151.156;2023-05-07T05:57:28;1.20;;;0.50;;
16113;SDS011;8161;-33.910;151.156;2023-05-07T05:59:55;0.75;;;0.40;;
16113;SDS011;8161;-33.910;151.156;2023-05-07T06:02:22;0.90;;;0.40;;
16113;SDS011;8161;-33.910;151.156;2023-05-07T06:04:50;0.98;;;0.60;;
16113;SDS011;8161;-33.910;151.156;2023-05-07T06:07:17;2.10;;;0.60;;
16113;SDS011;8161;-33.910;151.156;2023-05-07T06:09:44;0.80;;;0.68;;
16113;SDS011;8161;-33.910;151.156;2023-05-07T06:12:12;1.70;;;0.80;;
16113;SDS011;8161;-33.910;151.156;2023-05-07T06:14:39;1.20;;;0.80;;
16113;SDS011;8161;-33.910;151.156;2023-05-07T06:17:08;1.45;;;0.80;;
16113;SDS011;8161;-33.910;151.156;2023-05-07T06:19:35;1.88;;;0.73;;
16113;SDS011;8161;-33.910;151.156;2023-05-07T06:22:02;2.13;;;0.82;;
16113;SDS011;8161;-33.910;151.156;2023-05-07T06:24:30;1.65;;;0.82;;
16113;SDS011;8161;-33.910;151.156;2023-05-07T06:26:57;1.80;;;0.90;;
16113;SDS011;8161;-33.910;151.156;2023-05-07T06:29:24;1.38;;;0.80;;
16113;SDS011;8161;-33.910;151.156;2023-05-07T06:31:54;2.72;;;0.95;;
16113;SDS011;8161;-33.910;151.156;2023-05-07T06:34:22;4.85;;;1.48;;
16113;SDS011;8161;-33.910;151.156;2023-05-07T06:36:49;1.70;;;0.93;;
16113;SDS011;8161;-33.910;151.156;2023-05-07T06:39:16;1.80;;;1.02;;
16113;SDS011;8161;-33.910;151.156;2023-05-07T06:41:43;1.00;;;0.63;;
16113;SDS011;8161;-33.910;151.156;2023-05-07T06:44:14;1.35;;;0.90;;
16113;SDS011;8161;-33.910;151.156;2023-05-07T06:46:41;1.20;;;0.70;;
16113;SDS011;8161;-33.910;151.156;2023-05-07T06:49:08;1.45;;;1.02;;
16113;SDS011;8161;-33.910;151.156;2023-05-07T06:51:39;1.05;;;0.68;;
16113;SDS011;8161;-33.910;151.156;2023-05-07T06:54:06;0.68;;;0.50;;
16113;SDS011;8161;-33.910;151.156;2023-05-07T06:56:33;1.48;;;0.70;;
16113;SDS011;8161;-33.910;151.156;2023-05-07T06:59:01;1.70;;;0.80;;
16113;SDS011;8161;-33.910;151.156;2023-05-07T07:01:32;1.20;;;0.60;;
16113;SDS011;8161;-33.910;151.156;2023-05-07T07:03:59;1.77;;;0.73;;
16113;SDS011;8161;-33.910;151.156;2023-05-07T07:06:26;1.20;;;0.80;;
16113;SDS011;8161;-33.910;151.156;2023-05-07T07:08:55;0.80;;;0.60;;
16113;SDS011;8161;-33.910;151.156;2023-05-07T07:11:22;0.90;;;0.60;;
16113;SDS011;8161;-33.910;151.156;2023-05-07T07:13:49;1.00;;;0.60;;
16113;SDS011;8161;-33.910;151.156;2023-05-07T07:16:16;0.95;;;0.70;;
16113;SDS011;8161;-33.910;151.156;2023-05-07T07:18:43;2.33;;;0.90;;
16113;SDS011;8161;-33.910;151.156;2023-05-07T07:21:11;1.00;;;0.60;;
16113;SDS011;8161;-33.910;151.156;2023-05-07T07:23:38;1.00;;;0.50;;
16113;SDS011;8161;-33.910;151.156;2023-05-07T07:26:05;0.75;;;0.60;;
16113;SDS011;8161;-33.910;151.156;2023-05-07T07:28:33;1.33;;;0.70;;
16113;SDS011;8161;-33.910;151.156;2023-05-07T07:31:00;1.30;;;0.60;;
16113;SDS011;8161;-33.910;151.156;2023-05-07T07:33:30;1.05;;;0.47;;
16113;SDS011;8161;-33.910;151.156;2023-05-07T07:36:00;0.68;;;0.47;;
16113;SDS011;8161;-33.910;151.156;2023-05-07T07:38:28;0.70;;;0.40;;
16113;SDS011;8161;-33.910;151.156;2023-05-07T07:40:55;1.40;;;0.65;;
16113;SDS011;8161;-33.910;151.156;2023-05-07T07:43:22;3.25;;;0.77;;
16113;SDS011;8161;-33.910;151.156;2023-05-07T07:45:49;1.08;;;0.70;;
16113;SDS011;8161;-33.910;151.156;2023-05-07T07:48:17;1.67;;;0.80;;
16113;SDS011;8161;-33.910;151.156;2023-05-07T07:50:44;1.50;;;0.70;;
16113;SDS011;8161;-33.910;151.156;2023-05-07T07:53:14;1.47;;;0.63;;
16113;SDS011;8161;-33.910;151.156;2023-05-07T07:55:41;1.20;;;0.57;;
16113;SDS011;8161;-33.910;151.156;2023-05-07T07:58:09;2.05;;;0.70;;
16113;SDS011;8161;-33.910;151.156;2023-05-07T08:00:36;2.03;;;0.55;;
16113;SDS011;8161;-33.910;151.156;2023-05-07T08:03:03;1.20;;;0.63;;
16113;SDS011;8161;-33.910;151.156;2023-05-07T08:05:32;1.52;;;0.80;;
16113;SDS011;8161;-33.910;151.156;2023-05-07T08:07:59;0.88;;;0.50;;
16113;SDS011;8161;-33.910;151.156;2023-05-07T08:10:26;1.73;;;0.80;;
16113;SDS011;8161;-33.910;151.156;2023-05-07T08:12:54;1.60;;;0.70;;
16113;SDS011;8161;-33.910;151.156;2023-05-07T08:15:21;0.90;;;0.50;;
16113;SDS011;8161;-33.910;151.156;2023-05-07T08:17:51;0.90;;;0.50;;
16113;SDS011;8161;-33.910;151.156;2023-05-07T08:20:18;1.15;;;0.60;;
16113;SDS011;8161;-33.910;151.156;2023-05-07T08:22:45;1.65;;;0.80;;
16113;SDS011;8161;-33.910;151.156;2023-05-07T08:25:13;2.28;;;0.90;;
16113;SDS011;8161;-33.910;151.156;2023-05-07T08:27:40;1.60;;;0.93;;
16113;SDS011;8161;-33.910;151.156;2023-05-07T08:30:07;2.92;;;1.23;;
16113;SDS011;8161;-33.910;151.156;2023-05-07T08:32:35;3.70;;;1.60;;
16113;SDS011;8161;-33.910;151.156;2023-05-07T08:35:02;2.72;;;1.20;;
16113;SDS011;8161;-33.910;151.156;2023-05-07T08:37:29;1.77;;;0.90;;
16113;SDS011;8161;-33.910;151.156;2023-05-07T08:39:57;3.08;;;1.20;;
16113;SDS011;8161;-33.910;151.156;2023-05-07T08:42:24;3.10;;;1.65;;
16113;SDS011;8161;-33.910;151.156;2023-05-07T08:44:52;2.30;;;1.10;;
16113;SDS011;8161;-33.910;151.156;2023-05-07T08:47:32;2.17;;;0.85;;
16113;SDS011;8161;-33.910;151.156;2023-05-07T08:50:06;1.27;;;0.70;;
16113;SDS011;8161;-33.910;151.156;2023-05-07T08:52:33;4.10;;;1.15;;
16113;SDS011;8161;-33.910;151.156;2023-05-07T08:55:02;1.27;;;0.80;;
16113;SDS011;8161;-33.910;151.156;2023-05-07T08:57:29;1.63;;;0.80;;
16113;SDS011;8161;-33.910;151.156;2023-05-07T08:59:57;2.58;;;0.93;;
16113;SDS011;8161;-33.910;151.156;2023-05-07T09:02:24;1.73;;;0.98;;
16113;SDS011;8161;-33.910;151.156;2023-05-07T09:04:51;2.00;;;0.80;;
16113;SDS011;8161;-33.910;151.156;2023-05-07T09:07:19;3.45;;;0.90;;
16113;SDS011;8161;-33.910;151.156;2023-05-07T09:09:47;1.67;;;0.90;;
16113;SDS011;8161;-33.910;151.156;2023-05-07T09:12:14;1.83;;;1.02;;
16113;SDS011;8161;-33.910;151.156;2023-05-07T09:14:42;1.50;;;1.10;;
16113;SDS011;8161;-33.910;151.156;2023-05-07T09:17:09;4.05;;;0.95;;
16113;SDS011;8161;-33.910;151.156;2023-05-07T09:19:36;3.10;;;1.08;;
16113;SDS011;8161;-33.910;151.156;2023-05-07T09:22:04;1.42;;;0.80;;
16113;SDS011;8161;-33.910;151.156;2023-05-07T09:24:35;2.43;;;1.20;;
16113;SDS011;8161;-33.910;151.156;2023-05-07T09:27:04;2.92;;;1.23;;
16113;SDS011;8161;-33.910;151.156;2023-05-07T09:29:31;2.05;;;0.95;;
16113;SDS011;8161;-33.910;151.156;2023-05-07T09:32:01;2.70;;;0.93;;
16113;SDS011;8161;-33.910;151.156;2023-05-07T09:34:33;1.60;;;1.00;;
16113;SDS011;8161;-33.910;151.156;2023-05-07T09:37:04;1.23;;;0.73;;
16113;SDS011;8161;-33.910;151.156;2023-05-07T09:39:42;3.85;;;0.85;;
16113;SDS011;8161;-33.910;151.156;2023-05-07T09:42:10;0.80;;;0.50;;
16113;SDS011;8161;-33.910;151.156;2023-05-07T09:44:40;1.25;;;0.47;;
16113;SDS011;8161;-33.910;151.156;2023-05-07T09:47:10;0.98;;;0.40;;
16113;SDS011;8161;-33.910;151.156;2023-05-07T09:49:43;0.60;;;0.40;;
16113;SDS011;8161;-33.910;151.156;2023-05-07T09:52:14;0.50;;;0.32;;
16113;SDS011;8161;-33.910;151.156;2023-05-07T09:54:42;0.80;;;0.40;;
16113;SDS011;8161;-33.910;151.156;2023-05-07T09:57:11;0.40;;;0.30;;
16113;SDS011;8161;-33.910;151.156;2023-05-07T09:59:43;0.70;;;0.50;;
16113;SDS011;8161;-33.910;151.156;2023-05-07T10:02:10;0.73;;;0.30;;
16113;SDS011;8161;-33.910;151.156;2023-05-07T10:04:40;0.10;;;0.10;;
16113;SDS011;8161;-33.910;151.156;2023-05-07T10:07:08;0.32;;;0.30;;
16113;SDS011;8161;-33.910;151.156;2023-05-07T10:09:35;0.20;;;0.10;;
16113;SDS011;8161;-33.910;151.156;2023-05-07T10:12:04;0.30;;;0.30;;
16113;SDS011;8161;-33.910;151.156;2023-05-07T10:14:33;0.43;;;0.30;;
16113;SDS011;8161;-33.910;151.156;2023-05-07T10:17:01;0.30;;;0.30;;
16113;SDS011;8161;-33.910;151.156;2023-05-07T10:19:29;1.00;;;0.50;;
16113;SDS011;8161;-33.910;151.156;2023-05-07T10:21:59;0.43;;;0.20;;
16113;SDS011;8161;-33.910;151.156;2023-05-07T10:24:33;0.70;;;0.22;;
16113;SDS011;8161;-33.910;151.156;2023-05-07T10:27:10;0.23;;;0.20;;
16113;SDS011;8161;-33.910;151.156;2023-05-07T10:29:53;0.57;;;0.30;;
16113;SDS011;8161;-33.910;151.156;2023-05-07T10:32:48;0.52;;;0.30;;
16113;SDS011;8161;-33.910;151.156;2023-05-07T10:35:21;0.40;;;0.28;;
16113;SDS011;8161;-33.910;151.156;2023-05-07T10:37:54;0.30;;;0.30;;
16113;SDS011;8161;-33.910;151.156;2023-05-07T10:40:21;0.55;;;0.20;;
16113;SDS011;8161;-33.910;151.156;2023-05-07T10:45:31;0.13;;;0.10;;
16113;SDS011;8161;-33.910;151.156;2023-05-07T10:48:17;0.40;;;0.22;;
16113;SDS011;8161;-33.910;151.156;2023-05-07T10:50:45;0.20;;;0.20;;
16113;SDS011;8161;-33.910;151.156;2023-05-07T10:55:49;0.52;;;0.20;;
16113;SDS011;8161;-33.910;151.156;2023-05-07T10:58:26;0.10;;;0.10;;
16113;SDS011;8161;-33.910;151.156;2023-05-07T11:00:58;0.10;;;0.10;;
16113;SDS011;8161;-33.910;151.156;2023-05-07T11:03:27;0.10;;;0.10;;
16113;SDS011;8161;-33.910;151.156;2023-05-07T11:17:11;0.10;;;0.10;;
16113;SDS011;8161;-33.910;151.156;2023-05-07T11:19:51;0.38;;;0.10;;
16113;SDS011;8161;-33.910;151.156;2023-05-07T11:25:02;0.10;;;0.10;;
16113;SDS011;8161;-33.910;151.156;2023-05-07T11:27:30;0.20;;;0.20;;
16113;SDS011;8161;-33.910;151.156;2023-05-07T11:29:58;0.20;;;0.13;;
16113;SDS011;8161;-33.910;151.156;2023-05-07T11:32:27;1.15;;;0.20;;
16113;SDS011;8161;-33.910;151.156;2023-05-07T11:34:56;0.68;;;0.20;;
16113;SDS011;8161;-33.910;151.156;2023-05-07T11:37:26;0.20;;;0.20;;
16113;SDS011;8161;-33.910;151.156;2023-05-07T11:40:05;0.30;;;0.10;;
16113;SDS011;8161;-33.910;151.156;2023-05-07T11:42:35;0.10;;;0.10;;
16113;SDS011;8161;-33.910;151.156;2023-05-07T11:45:08;0.22;;;0.20;;
16113;SDS011;8161;-33.910;151.156;2023-05-07T11:47:36;0.55;;;0.20;;
16113;SDS011;8161;-33.910;151.156;2023-05-07T11:50:04;1.23;;;0.22;;
16113;SDS011;8161;-33.910;151.156;2023-05-07T11:52:33;0.20;;;0.10;;
16113;SDS011;8161;-33.910;151.156;2023-05-07T11:55:01;1.15;;;0.50;;
16113;SDS011;8161;-33.910;151.156;2023-05-07T11:57:30;0.60;;;0.30;;
16113;SDS011;8161;-33.910;151.156;2023-05-07T11:59:59;0.53;;;0.20;;
16113;SDS011;8161;-33.910;151.156;2023-05-07T12:02:29;2.40;;;0.45;;
16113;SDS011;8161;-33.910;151.156;2023-05-07T12:04:57;0.80;;;0.30;;
16113;SDS011;8161;-33.910;151.156;2023-05-07T12:07:24;2.00;;;0.30;;
16113;SDS011;8161;-33.910;151.156;2023-05-07T12:09:51;1.10;;;0.50;;
16113;SDS011;8161;-33.910;151.156;2023-05-07T12:12:19;3.47;;;0.70;;
16113;SDS011;8161;-33.910;151.156;2023-05-07T12:14:47;0.70;;;0.40;;
16113;SDS011;8161;-33.910;151.156;2023-05-07T12:17:15;0.82;;;0.22;;
16113;SDS011;8161;-33.910;151.156;2023-05-07T12:19:43;0.97;;;0.20;;
16113;SDS011;8161;-33.910;151.156;2023-05-07T12:22:12;1.38;;;0.88;;
16113;SDS011;8161;-33.910;151.156;2023-05-07T12:24:46;0.85;;;0.20;;
16113;SDS011;8161;-33.910;151.156;2023-05-07T12:27:16;1.88;;;0.55;;
16113;SDS011;8161;-33.910;151.156;2023-05-07T12:29:44;1.08;;;0.30;;
16113;SDS011;8161;-33.910;151.156;2023-05-07T12:32:16;0.70;;;0.30;;
16113;SDS011;8161;-33.910;151.156;2023-05-07T12:34:45;1.20;;;0.40;;
16113;SDS011;8161;-33.910;151.156;2023-05-07T12:37:12;0.75;;;0.30;;
16113;SDS011;8161;-33.910;151.156;2023-05-07T12:39:50;2.17;;;0.30;;
16113;SDS011;8161;-33.910;151.156;2023-05-07T12:42:37;3.97;;;0.50;;
16113;SDS011;8161;-33.910;151.156;2023-05-07T12:45:08;0.60;;;0.30;;
16113;SDS011;8161;-33.910;151.156;2023-05-07T12:47:39;0.57;;;0.30;;
16113;SDS011;8161;-33.910;151.156;2023-05-07T12:50:06;1.00;;;0.43;;
16113;SDS011;8161;-33.910;151.156;2023-05-07T12:52:34;1.67;;;0.50;;
16113;SDS011;8161;-33.910;151.156;2023-05-07T12:55:05;1.70;;;0.30;;
16113;SDS011;8161;-33.910;151.156;2023-05-07T12:57:41;1.38;;;0.40;;
16113;SDS011;8161;-33.910;151.156;2023-05-07T13:00:11;0.98;;;0.30;;
16113;SDS011;8161;-33.910;151.156;2023-05-07T13:02:42;0.85;;;0.30;;
16113;SDS011;8161;-33.910;151.156;2023-05-07T13:05:10;0.70;;;0.35;;
16113;SDS011;8161;-33.910;151.156;2023-05-07T13:07:40;1.40;;;0.40;;
16113;SDS011;8161;-33.910;151.156;2023-05-07T13:10:18;1.98;;;0.20;;
16113;SDS011;8161;-33.910;151.156;2023-05-07T13:12:45;1.30;;;0.20;;
16113;SDS011;8161;-33.910;151.156;2023-05-07T13:15:12;0.70;;;0.30;;
16113;SDS011;8161;-33.910;151.156;2023-05-07T13:17:40;1.60;;;0.32;;
16113;SDS011;8161;-33.910;151.156;2023-05-07T13:20:08;1.17;;;0.40;;
16113;SDS011;8161;-33.910;151.156;2023-05-07T13:22:37;1.10;;;0.22;;
16113;SDS011;8161;-33.910;151.156;2023-05-07T13:25:05;0.60;;;0.30;;
16113;SDS011;8161;-33.910;151.156;2023-05-07T13:27:33;0.30;;;0.30;;
16113;SDS011;8161;-33.910;151.156;2023-05-07T13:30:06;1.80;;;0.30;;
16113;SDS011;8161;-33.910;151.156;2023-05-07T13:32:33;1.60;;;0.30;;
16113;SDS011;8161;-33.910;151.156;2023-05-07T13:35:04;0.77;;;0.40;;
16113;SDS011;8161;-33.910;151.156;2023-05-07T13:37:32;0.70;;;0.38;;
16113;SDS011;8161;-33.910;151.156;2023-05-07T13:39:59;1.50;;;0.40;;
16113;SDS011;8161;-33.910;151.156;2023-05-07T13:42:30;1.30;;;0.40;;
16113;SDS011;8161;-33.910;151.156;2023-05-07T13:44:57;0.90;;;0.40;;
16113;SDS011;8161;-33.910;151.156;2023-05-07T13:47:24;1.70;;;0.80;;
16113;SDS011;8161;-33.910;151.156;2023-05-07T13:49:52;0.50;;;0.30;;
16113;SDS011;8161;-33.910;151.156;2023-05-07T13:52:19;0.70;;;0.35;;
16113;SDS011;8161;-33.910;151.156;2023-05-07T13:54:46;1.00;;;0.43;;
16113;SDS011;8161;-33.910;151.156;2023-05-07T13:57:14;0.90;;;0.30;;
16113;SDS011;8161;-33.910;151.156;2023-05-07T13:59:41;0.98;;;0.35;;
16113;SDS011;8161;-33.910;151.156;2023-05-07T14:02:08;0.55;;;0.30;;
16113;SDS011;8161;-33.910;151.156;2023-05-07T14:04:36;1.20;;;0.30;;
16113;SDS011;8161;-33.910;151.156;2023-05-07T14:07:04;0.98;;;0.50;;
16113;SDS011;8161;-33.910;151.156;2023-05-07T14:09:31;1.48;;;0.47;;
16113;SDS011;8161;-33.910;151.156;2023-05-07T14:11:59;1.58;;;0.30;;
16113;SDS011;8161;-33.910;151.156;2023-05-07T14:14:27;1.90;;;0.30;;
16113;SDS011;8161;-33.910;151.156;2023-05-07T14:16:54;0.40;;;0.30;;
16113;SDS011;8161;-33.910;151.156;2023-05-07T14:19:21;3.42;;;0.50;;
16113;SDS011;8161;-33.910;151.156;2023-05-07T14:21:49;0.85;;;0.40;;
16113;SDS011;8161;-33.910;151.156;2023-05-07T14:24:16;1.00;;;0.30;;
16113;SDS011;8161;-33.910;151.156;2023-05-07T14:26:43;1.20;;;0.40;;
16113;SDS011;8161;-33.910;151.156;2023-05-07T14:29:10;1.10;;;0.40;;
16113;SDS011;8161;-33.910;151.156;2023-05-07T14:31:40;0.63;;;0.32;;
16113;SDS011;8161;-33.910;151.156;2023-05-07T14:34:08;0.82;;;0.28;;
16113;SDS011;8161;-33.910;151.156;2023-05-07T14:36:35;0.90;;;0.30;;
16113;SDS011;8161;-33.910;151.156;2023-05-07T14:39:03;0.70;;;0.30;;
16113;SDS011;8161;-33.910;151.156;2023-05-07T14:41:30;1.15;;;0.30;;
16113;SDS011;8161;-33.910;151.156;2023-05-07T14:43:58;0.98;;;0.50;;
16113;SDS011;8161;-33.910;151.156;2023-05-07T14:46:25;0.50;;;0.30;;
16113;SDS011;8161;-33.910;151.156;2023-05-07T14:48:53;0.80;;;0.30;;